Bob Hope Airport
KBUR : now visible

Airfield :











YOU CAN JOIN US ON...

 
LOGIN :

Register | Disclaimer

   EN    FR    IT 

 









Legend :    VFR   Marginal VFR   IFR   Intensive IFR   Very Intensive IFR
Visi :
Ceiling :
>= 8 km
>= 3000ft
5 to 8 km
1000 to 3000 ft
1500m to 5 km
500 to 1000 ft
800 to 1500m
200 to 500 ft
< 800m
< 200 ft
Symbols :   Thunderstorms  Fog  Heavy snow  Heavy precipitations  Wind > 20 kt







- Airport Elevation : 778 ft
- IATA code : BUR


KBUR - Bob Hope

CURRENT METAR :
  • 212053Z 00000KT 10SM CLR 32/04 A2984 RMK AO2 SLP089 T03220039 58026 $

EXPIRED METARs :
  • 211953Z 17005KT 10SM CLR 30/07 A2986 RMK AO2 SLP098 T03000067 $
  • 211853Z 00000KT 10SM CLR 28/12 A2989 RMK AO2 SLP108 T02830117 $

TAF KBUR
Valid from the 21 at 18:00 until the 22 at 18:00 UTC


211741Z 2118/2218 00000KT P6SM SKC
FM212000 18008KT P6SM SKC
FM220200 12007KT P6SM SKC
FM221600 14005KT P6SM SKC
No reported NOTAMs for that airfield.



MET'MAP, your aeronautical weather chart ! - Copyright ORBIFLY December 2007 - Disclaimer

ORBIFLY MET'MAP TEAM :

Programming & Development : Alexandra Zaïnal
Concept & Development : Baudouin d'Aumeries
Co-Development & Prog : Marc-Olivier Méhu
Technical & hardware support : Manuel Goepfert

Contact : metmap@orbifly.com




SOURCES & CREDITS :

   NOAA       Earth
Advisory